Latest Weather Observations for Camden

IDN60901

Issued at 8:51 pm EST Sunday 16 June 2019 (issued every 10 minutes, with the page automatically refreshed every 10 minutes)

About weather observations | Map of Sydney area stations | Latest observations for Sydney area | Other Formats
Station Details ID: 068192 Name: CAMDEN AIRPORT AWS Lat: -34.04 Lon: 150.69 Height: 73.9 m
Data from the previous 72 hours. | See also: Recent months at Camden
Date/Time
EST
Temp
°C
App
Temp
°C
Dew
Point
°C
Rel
Hum
%
Delta-T
°C
Wind Press
QNH
hPa
Press
MSL
hPa
Rain since
9am
mm
Dir  Spd
km/h
Gust
km/h
Spd
kts
Gust
kts
16/08:30pm 11.7 10.1 11.5 99 0.1 WSW 11 13 6 7 1020.5 1020.6 11.6
16/08:15pm 11.7 10.5 11.5 99 0.1 SSW 9 11 5 6 1020.6 1020.7 10.8
16/08:00pm 11.8 11.0 11.6 99 0.1 SSW 7 13 4 7 1020.7 1020.8 8.6
16/07:31pm 11.8 11.0 11.6 99 0.1 WNW 7 9 4 5 1020.6 1020.7 7.2
16/07:30pm 11.8 11.0 11.6 99 0.1 WNW 7 9 4 5 1020.6 1020.7 7.0
16/07:00pm 11.9 12.4 11.7 99 0.1 CALM 0 0 0 0 1020.3 1020.4 4.4
16/06:30pm 12.0 11.4 11.8 99 0.1 WSW 6 7 3 4 1019.9 1020.0 4.0
16/06:00pm 12.0 12.2 11.8 99 0.1 W 2 7 1 4 1019.9 1020.0 3.8
16/05:30pm 12.2 12.0 11.7 97 0.3 WNW 4 6 2 3 1019.7 1019.8 3.6
16/05:00pm 12.2 11.4 11.6 96 0.3 SSW 7 11 4 6 1019.6 1019.7 3.6
16/04:30pm 12.4 11.6 11.6 95 0.4 SW 7 9 4 5 1019.5 1019.5 3.6
16/04:00pm 12.8 11.5 11.4 91 0.7 SSW 9 15 5 8 1019.6 1019.7 3.6
16/03:30pm 13.2 11.9 11.4 89 1.0 S 9 11 5 6 1019.5 1019.5 3.0
16/03:00pm 13.4 12.3 12.0 91 0.8 S 9 13 5 7 1019.4 1019.4 3.0
16/02:30pm 13.0 10.8 12.1 94 0.5 SSW 15 19 8 10 1019.3 1019.3 3.0
16/02:00pm 12.9 11.1 12.1 95 0.4 SSW 13 19 7 10 1019.6 1019.7 3.0
16/01:30pm 13.4 12.2 12.9 97 0.3 S 11 17 6 9 1019.6 1019.7 2.4
16/01:00pm 13.9 12.9 13.4 97 0.3 S 11 15 6 8 1019.9 1020.0 2.0
16/12:30pm 13.8 12.7 13.2 96 0.3 S 11 17 6 9 1020.4 1020.5 1.6
16/12:00pm 13.8 14.8 13.2 96 0.3 CALM 0 6 0 3 1020.7 1020.8 0.8
16/11:30am 13.8 13.4 12.9 94 0.5 SW 7 11 4 6 1021.1 1021.2 0.2
16/11:00am 13.6 12.8 12.8 95 0.4 SW 9 13 5 7 1021.6 1021.7 0.2
16/10:30am 13.4 13.0 12.5 94 0.5 SSW 6 9 3 5 1021.8 1021.9 0.0
16/10:00am 12.9 12.5 12.3 96 0.3 SW 6 9 3 5 1021.7 1021.8 0.0
16/09:30am 12.7 12.3 12.4 98 0.2 SW 6 9 3 5 1021.7 1021.8 0.0
16/09:00am 12.1 12.7 11.9 99 0.1 CALM 0 0 0 0 1021.7 1021.8 2.6
16/08:30am 11.6 12.0 11.4 99 0.1 CALM 0 0 0 0 1021.8 1021.9 2.0
16/08:00am 11.6 12.0 11.4 99 0.1 CALM 0 0 0 0 1021.7 1021.8 2.0
16/07:30am 11.2 11.5 11.0 99 0.1 CALM 0 0 0 0 1021.5 1021.6 2.0
16/07:00am 11.3 11.7 11.1 99 0.1 CALM 0 0 0 0 1021.2 1021.3 1.8
16/06:30am 11.3 11.7 11.1 99 0.1 CALM 0 0 0 0 1021.0 1021.1 1.8
16/06:00am 11.3 10.3 11.1 99 0.1 WSW 7 11 4 6 1020.9 1021.0 1.4
16/05:30am 11.2 9.4 11.0 99 0.1 SW 11 15 6 8 1020.7 1020.8 1.4
16/05:12am 11.1 10.6 10.9 99 0.1 WSW 4 11 2 6 1020.8 1020.9 1.2
16/05:00am 11.1 11.0 10.9 99 0.1 ESE 2 7 1 4 1020.8 1020.9 1.2
16/04:55am 11.1 10.3 10.9 99 0.1 SE 6 7 3 4 1020.9 1021.0 1.0
16/04:30am 11.0 11.2 10.7 98 0.2 CALM 0 0 0 0 1020.6 1020.7 0.6
16/04:00am 11.0 11.2 10.7 98 0.2 CALM 0 0 0 0 1020.7 1020.8 0.6
16/03:30am 11.2 9.8 11.0 99 0.1 SW 9 11 5 6 1020.8 1020.9 0.6
16/03:00am 10.8 9.9 10.6 99 0.1 SSE 6 7 3 4 1020.6 1020.7 0.6
16/02:30am 10.6 9.4 10.4 99 0.1 NNW 7 9 4 5 1021.5 1021.6 0.4
16/02:00am 10.0 8.9 9.9 99 0.1 NNW 6 7 3 4 1021.6 1021.7 0.2
16/01:30am 9.8 9.3 9.2 96 0.3 WNW 2 7 1 4 1021.5 1021.6 0.2
16/01:00am 10.3 9.8 9.2 93 0.5 ENE 2 7 1 4 1021.6 1021.7 0.2
16/12:30am 10.5 10.1 8.4 87 1.0 CALM 0 0 0 0 1021.8 1021.9 0.0
16/12:00am 10.7 10.1 7.6 81 1.5 CALM 0 0 0 0 1022.0 1022.1 0.0
 
Date/Time
EST
Temp
°C
App
Temp
°C
Dew
Point
°C
Rel
Hum
%
Delta-T
°C
Wind Press
QNH
hPa
Press
MSL
hPa
Rain since
9am
mm
Dir  Spd
km/h
Gust
km/h
Spd
kts
Gust
kts
15/11:30pm 10.0 8.1 7.4 84 1.2 N 7 9 4 5 1022.0 1022.1 0.0
15/11:00pm 10.3 9.6 7.0 80 1.6 CALM 0 0 0 0 1021.9 1022.0 0.0
15/10:30pm 10.0 8.2 7.1 82 1.4 N 6 7 3 4 1022.0 1022.1 0.0
15/10:00pm 10.0 8.1 6.9 81 1.5 N 6 7 3 4 1021.7 1021.8 0.0
15/09:30pm 9.7 9.0 6.8 82 1.4 CALM 0 0 0 0 1022.0 1022.1 0.0
15/09:00pm 9.7 8.9 6.4 80 1.5 CALM 0 0 0 0 1021.8 1021.9 0.0
15/08:30pm 9.6 8.8 6.5 81 1.4 CALM 0 0 0 0 1021.6 1021.7 0.0
15/08:00pm 9.3 8.7 7.3 87 0.9 CALM 0 0 0 0 1021.6 1021.7 0.0
15/07:30pm 8.8 7.9 5.9 82 1.3 CALM 0 0 0 0 1021.6 1021.7 0.0
15/07:00pm 8.9 7.1 5.6 80 1.5 S 4 11 2 6 1021.3 1021.4 0.0
15/06:30pm 9.7 7.7 4.5 70 2.3 SSW 4 6 2 3 1020.8 1020.9 0.0
15/06:00pm 11.3 10.2 5.2 66 2.8 CALM 0 0 0 0 1020.5 1020.6 0.0
15/05:30pm 12.9 11.8 5.3 60 3.5 CALM 0 0 0 0 1020.1 1020.2 0.0
15/05:00pm 14.4 13.2 4.4 51 4.6 CALM 0 0 0 0 1019.8 1019.9 0.0
15/04:30pm 16.6 15.3 4.3 44 5.8 CALM 0 0 0 0 1019.6 1019.7 0.0
15/04:00pm 18.1 15.6 4.7 41 6.4 ENE 7 9 4 5 1019.5 1019.5 0.0
15/03:30pm 17.9 15.6 4.8 42 6.3 ESE 6 9 3 5 1019.5 1019.5 0.0
15/03:00pm 18.1 15.7 5.3 43 6.2 SE 7 11 4 6 1019.4 1019.4 0.0
15/02:30pm 18.5 15.5 3.9 38 6.9 SW 9 13 5 7 1019.2 1019.2 0.0
15/02:00pm 20.0 18.3 4.1 35 7.6 S 2 9 1 5 1019.1 1019.1 0.0
15/01:30pm 18.7 16.1 3.3 36 7.2 ESE 6 13 3 7 1019.3 1019.3 0.0
15/01:00pm 18.6 15.4 2.9 35 7.3 WSW 9 13 5 7 1019.6 1019.7 0.0
15/12:30pm 17.6 15.9 4.2 41 6.3 SSE 2 9 1 5 1019.9 1020.0 0.0
15/12:00pm 18.0 15.0 4.2 40 6.5 W 9 15 5 8 1020.2 1020.3 0.0
15/11:30am 17.2 14.3 4.9 44 5.9 SSW 9 19 5 10 1020.6 1020.7 0.0
15/11:00am 16.8 12.9 5.4 47 5.5 WSW 15 20 8 11 1021.1 1021.2 0.0
15/10:30am 15.9 11.8 6.1 52 4.8 SW 17 22 9 12 1021.4 1021.5 0.0
15/10:00am 13.3 12.2 6.9 65 3.1 S 2 7 1 4 1021.6 1021.7 0.0
15/09:30am 11.3 10.6 6.8 74 2.1 CALM 0 0 0 0 1021.5 1021.6 0.0
15/09:00am 9.6 8.9 6.9 83 1.3 CALM 0 0 0 0 1021.4 1021.5 0.0
15/08:30am 6.2 5.3 6.1 99 0.0 CALM 0 0 0 0 1021.3 1021.4 0.0
15/08:00am 3.5 2.1 3.4 99 0.0 CALM 0 0 0 0 1021.0 1021.1 0.0
15/07:30am 2.1 0.4 2.0 99 0.0 CALM 0 0 0 0 1020.8 1020.9 0.0
15/07:00am 1.8 0.1 1.7 99 0.0 CALM 0 0 0 0 1020.6 1020.7 0.0
15/06:37am 2.1 0.4 2.0 99 0.0 CALM 0 0 0 0 1020.3 1020.4 0.0
15/06:30am 2.8 1.2 2.7 99 0.0 CALM 0 0 0 0 1020.3 1020.4 0.0
15/06:08am 1.9 0.2 1.8 99 0.0 CALM 0 0 0 0 1020.1 1020.2 0.0
15/06:00am 2.1 0.4 2.0 99 0.0 CALM 0 0 0 0 1020.0 1020.1 0.0
15/05:30am 1.9 0.2 1.8 99 0.0 CALM 0 0 0 0 1019.7 1019.8 0.0
15/05:00am 2.4 0.8 2.3 99 0.0 CALM 0 0 0 0 1019.5 1019.5 0.0
15/04:30am 1.8 -0.7 1.5 98 0.1 SSE 4 9 2 5 1019.4 1019.4 0.0
15/04:00am 2.3 0.6 2.0 98 0.1 CALM 0 0 0 0 1019.4 1019.4 0.0
15/03:30am 2.5 0.5 2.1 97 0.2 SE 2 7 1 4 1019.4 1019.4 0.0
15/03:00am 3.2 1.7 2.9 98 0.1 CALM 0 0 0 0 1019.6 1019.7 0.0
15/02:30am 3.2 0.5 2.8 97 0.2 SSE 6 9 3 5 1019.5 1019.5 0.0
15/02:00am 3.5 2.0 2.9 96 0.2 CALM 0 2 0 1 1019.6 1019.7 0.0
15/01:30am 4.0 2.6 3.4 96 0.2 CALM 0 0 0 0 1019.7 1019.8 0.0
15/01:00am 4.3 1.7 3.3 93 0.4 S 6 9 3 5 1019.9 1020.0 0.0
15/12:30am 4.8 3.4 3.5 91 0.5 CALM 0 0 0 0 1020.0 1020.1 0.0
15/12:00am 4.9 2.3 3.2 89 0.7 S 6 9 3 5 1020.1 1020.2 0.0
 
Date/Time
EST
Temp
°C
App
Temp
°C
Dew
Point
°C
Rel
Hum
%
Delta-T
°C
Wind Press
QNH
hPa
Press
MSL
hPa
Rain since
9am
mm
Dir  Spd
km/h
Gust
km/h
Spd
kts
Gust
kts
14/11:30pm 5.4 4.0 3.4 87 0.8 CALM 0 0 0 0 1020.3 1020.4 0.0
14/11:00pm 5.6 3.2 2.3 79 1.3 SE 4 7 2 4 1020.3 1020.4 0.0
14/10:30pm 7.3 4.2 3.4 76 1.7 SE 9 13 5 7 1020.3 1020.4 0.0
14/10:00pm 10.1 7.6 4.5 68 2.5 SSW 7 9 4 5 1020.4 1020.5 0.0
14/09:30pm 9.3 6.6 3.5 67 2.5 SSE 7 9 4 5 1020.5 1020.6 0.0
14/09:00pm 10.5 7.5 4.2 65 2.8 SE 9 11 5 6 1020.4 1020.5 0.0
14/08:30pm 9.9 6.2 4.3 68 2.5 WSW 13 17 7 9 1020.3 1020.4 0.0
14/08:00pm 9.7 8.3 3.4 65 2.7 CALM 0 0 0 0 1020.3 1020.4 0.0
14/07:30pm 11.6 9.1 3.6 58 3.6 SSE 6 9 3 5 1020.1 1020.2 0.0
14/07:00pm 12.9 9.1 4.1 55 4.0 WSW 13 17 7 9 1019.8 1019.9 0.0
14/06:30pm 13.1 9.3 3.7 53 4.2 WSW 13 17 7 9 1019.4 1019.4 0.0
14/06:00pm 12.8 9.4 4.0 55 4.0 SW 11 17 6 9 1018.8 1018.8 0.0
14/05:30pm 13.3 10.4 4.7 56 4.0 WSW 9 13 5 7 1018.6 1018.6 0.0
14/05:00pm 14.2 11.8 5.3 55 4.2 W 7 11 4 6 1018.2 1018.2 0.0
14/04:30pm 17.1 16.4 6.9 51 5.1 CALM 0 0 0 0 1018.0 1018.0 0.0
14/04:00pm 17.1 16.0 5.1 45 5.7 CALM 0 2 0 1 1017.7 1017.7 0.0
14/03:30pm 17.0 13.3 4.3 43 6.0 SW 13 15 7 8 1017.8 1017.8 0.0
14/03:00pm 18.0 14.2 3.9 39 6.6 SSW 13 19 7 10 1017.7 1017.7 0.0
14/02:30pm 18.4 13.7 3.1 36 7.1 SW 17 20 9 11 1017.7 1017.7 0.0
14/02:00pm 19.0 15.1 3.2 35 7.4 WSW 13 22 7 12 1017.9 1017.9 0.0
14/01:30pm 18.9 14.6 3.5 36 7.3 WNW 15 20 8 11 1018.0 1018.0 0.0
14/01:00pm 18.1 13.8 3.2 37 6.9 WSW 15 20 8 11 1018.3 1018.3 0.0
14/12:30pm 17.5 12.4 3.0 38 6.7 W 19 24 10 13 1018.6 1018.6 0.0
14/12:00pm 17.6 13.5 4.6 42 6.2 WSW 15 20 8 11 1019.0 1019.0 0.0
14/11:30am 17.2 12.7 4.2 42 6.1 SW 17 24 9 13 1019.6 1019.7 0.0
14/11:00am 16.1 11.6 4.2 45 5.5 SW 17 24 9 13 1020.2 1020.3 0.0
14/10:30am 15.8 11.7 4.5 47 5.3 WSW 15 20 8 11 1020.4 1020.5 0.0
14/10:00am 13.7 11.6 5.8 59 3.7 WSW 6 11 3 6 1020.7 1020.8 0.0
14/09:30am 12.1 11.1 5.5 64 3.1 CALM 0 0 0 0 1020.8 1020.9 0.0
14/09:00am 9.8 9.2 7.6 86 1.1 CALM 0 0 0 0 1020.8 1020.9 0.0
14/08:30am 6.8 6.0 6.7 99 0.0 CALM 0 0 0 0 1020.6 1020.7 0.0
14/08:00am 4.8 2.5 4.7 99 0.0 NNE 6 9 3 5 1020.4 1020.5 0.0
14/07:30am 3.7 2.3 3.3 97 0.2 CALM 0 0 0 0 1019.8 1019.9 0.0
14/07:00am 3.3 1.7 2.6 95 0.3 CALM 0 0 0 0 1019.5 1019.5 0.0
14/06:30am 3.8 2.4 3.4 97 0.2 CALM 0 0 0 0 1019.1 1019.1 0.0
14/06:00am 3.8 2.0 3.2 96 0.2 ENE 2 7 1 4 1018.9 1018.9 0.0
14/05:30am 4.2 2.7 3.2 93 0.4 CALM 0 0 0 0 1018.8 1018.8 0.0
14/05:00am 5.1 3.8 4.2 94 0.4 CALM 0 0 0 0 1018.4 1018.4 0.0
14/04:30am 4.9 3.5 3.6 91 0.5 CALM 0 0 0 0 1018.3 1018.3 0.0
14/04:00am 6.3 3.2 3.5 82 1.2 SE 9 13 5 7 1017.9 1017.9 0.0
14/03:30am 5.9 4.5 3.7 86 0.9 CALM 0 0 0 0 1018.1 1018.1 0.0
14/03:00am 6.8 5.1 3.9 82 1.2 SE 2 9 1 5 1018.1 1018.1 0.0
14/02:30am 7.2 5.8 3.8 79 1.5 CALM 0 0 0 0 1018.0 1018.0 0.0
14/02:00am 8.9 6.2 3.7 70 2.3 ESE 7 9 4 5 1018.1 1018.1 0.0
14/01:30am 9.3 5.8 3.5 67 2.5 WSW 11 13 6 7 1018.0 1018.0 0.0
14/01:00am 11.0 7.9 3.5 60 3.3 WSW 9 11 5 6 1018.0 1018.0 0.0
14/12:30am 11.1 7.3 4.1 62 3.1 WSW 13 17 7 9 1018.2 1018.2 0.0
14/12:00am 12.4 9.1 4.4 58 3.6 WSW 11 15 6 8 1018.5 1018.5 0.0
 
Date/Time
EST
Temp
°C
App
Temp
°C
Dew
Point
°C
Rel
Hum
%
Delta-T
°C
Wind Press
QNH
hPa
Press
MSL
hPa
Rain since
9am
mm
Dir  Spd
km/h
Gust
km/h
Spd
kts
Gust
kts
13/11:30pm 12.2 8.5 4.7 60 3.4 W 13 19 7 10 1018.6 1018.6 0.0
13/11:00pm 13.4 9.7 4.6 55 4.1 SW 13 17 7 9 1018.7 1018.7 0.0
13/10:30pm 14.0 10.0 5.1 55 4.2 SW 15 24 8 13 1018.5 1018.5 0.0
13/10:00pm 13.8 9.3 5.9 59 3.8 WSW 19 22 10 12 1018.4 1018.4 0.0
13/09:30pm 13.6 10.2 5.7 59 3.7 WSW 13 17 7 9 1018.2 1018.2 0.0
13/09:00pm 13.2 10.3 6.5 64 3.2 WSW 11 17 6 9 1018.2 1018.2 0.0

Latest Capital City Observations: Canberra | Sydney | Melbourne | Brisbane | Adelaide | Perth | Hobart | Darwin

Other formats

Comma delimited format used in spreadsheet applications
http://www.bom.gov.au/fwo/IDN60901/IDN60901.94755.axf

JavaScript Object Notation format (JSON) in row-major order
http://www.bom.gov.au/fwo/IDN60901/IDN60901.94755.json

Data quality

Most of these data are generated automatically and are frequently updated. Quality checks on data are not normally performed. It is possible for incorrect values to appear. Refer to information at About Latest Weather Observations and please check the disclaimer before using these data.